Terminal Aerodrome Forecast
Issued by NWS

Home | Current Version | Previous Version | Graphics & Text | Print | Product List | Glossary On
Versions: 1 2 3 4 5 6 7 8 9 10 11 12 13 14 15
000
FTUS43 KICT 132300
TAFHUT
TAF
KHUT 132334Z 1400/1424 35026G36KT P6SM SCT009 OVC012
     FM140900 35023G33KT 3SM -SN BR BKN007 OVC012
     FM141400 36023G33KT P6SM BKN020
     FM141800 36018G26KT P6SM SCT020 BKN035=

USA.gov is the U.S. government's official web portal to all federal, state and local government web resources and services.